Time;durP1;ratioP1;P1;durP2;ratioP2;P2;SDS_P1;SDS_P2;PMS_P1;PMS_P2;Temp;Humidity;BMP_temperature;BMP_pressure;BME280_temperature;BME280_humidity;BME280_pressure;Samples;Min_cycle;Max_cycle;Signal;HPM_P1;HPM_P2
2022/04/14 00:00:20;;;;;;;;;;;;;;;20.45;42.91;101199.56;5009608;28;4212;-58
2022/04/14 00:02:47;;;;;;;;;;;;;;;20.46;42.88;101191.72;5014206;28;5493;-58
2022/04/14 00:05:13;;;;;;;;;;;;;;;20.45;42.94;101196.69;5013855;28;4190;-58
2022/04/14 00:07:40;;;;;;;;;;;;;;;20.45;42.98;101182.31;5011067;28;5459;-58
2022/04/14 00:10:06;;;;;;;;;;;;;;;20.46;42.95;101189.56;5011073;28;4094;-59
2022/04/14 00:12:33;;;;;;;;;;;;;;;20.46;42.82;101186.69;5015622;28;4459;-58
2022/04/14 00:15:02;;;;;;;;;;;;;;;20.47;42.87;101178.81;5015029;28;4082;-58
2022/04/14 00:17:29;;;;;;;;;;;;;;;20.55;42.70;101172.69;5011051;28;4506;-58
2022/04/14 00:19:55;;;;;;;;;;;;;;;20.56;42.65;101185.72;5013275;28;4240;-58
2022/04/14 00:22:21;;;;;;;;;;;;;;;20.54;42.61;101182.75;5010590;28;4181;-58
2022/04/14 00:24:48;;;;;;;;;;;;;;;20.57;42.64;101184.34;5013430;28;4428;-58
2022/04/14 00:27:16;;;;;;;;;;;;;;;20.55;42.69;101181.34;5010918;28;4486;-58
2022/04/14 00:29:43;;;;;;;;;;;;;;;20.54;42.57;101182.75;5011293;28;4323;-58
2022/04/14 00:32:09;;;;;;;;;;;;;;;20.56;42.59;101195.13;5014204;28;5333;-58
2022/04/14 00:34:35;;;;;;;;;;;;;;;20.56;42.56;101197.22;5018411;28;4386;-58
2022/04/14 00:37:02;;;;;;;;;;;;;;;20.56;42.65;101203.75;5017175;28;4295;-58
2022/04/14 00:39:28;;;;;;;;;;;;;;;20.51;42.60;101199.88;5014656;28;4402;-58
2022/04/14 00:41:54;;;;;;;;;;;;;;;20.54;42.65;101200.00;5017825;28;5365;-57
2022/04/14 00:44:21;;;;;;;;;;;;;;;20.56;42.61;101197.22;5017012;28;4213;-59
2022/04/14 00:46:47;;;;;;;;;;;;;;;20.54;42.62;101200.75;5015644;28;4241;-58
2022/04/14 00:49:14;;;;;;;;;;;;;;;20.56;42.50;101197.22;5007302;28;4243;-58
2022/04/14 00:51:40;;;;;;;;;;;;;;;20.56;42.57;101200.09;4998639;28;4169;-58
2022/04/14 00:54:06;;;;;;;;;;;;;;;20.50;42.57;101200.53;5012231;28;4175;-58
2022/04/14 00:56:33;;;;;;;;;;;;;;;20.56;42.56;101198.00;5017644;28;4148;-58
2022/04/14 00:58:59;;;;;;;;;;;;;;;20.56;42.50;101185.72;5017340;28;4029;-57
2022/04/14 01:01:25;;;;;;;;;;;;;;;20.54;42.63;101188.50;5016475;28;5348;-58
2022/04/14 01:03:53;;;;;;;;;;;;;;;20.55;42.51;101196.50;5018704;28;4113;-58
2022/04/14 01:06:20;;;;;;;;;;;;;;;20.48;42.66;101197.56;5013554;28;4568;-58
2022/04/14 01:09:16;;;;;;;;;;;;;;;20.48;42.56;101195.44;5017652;28;4079;-58
2022/04/14 01:11:33;;;;;;;;;;;;;;;20.46;42.59;101192.44;5011851;28;4208;-58
2022/04/14 01:14:00;;;;;;;;;;;;;;;20.47;42.64;101196.06;5015021;28;5353;-58
2022/04/14 01:16:26;;;;;;;;;;;;;;;20.47;42.66;101193.19;5015541;28;4046;-58
2022/04/14 01:18:52;;;;;;;;;;;;;;;20.47;42.63;101196.06;5014302;28;4153;-58
2022/04/14 01:21:21;;;;;;;;;;;;;;;20.47;42.62;101198.94;5010691;28;4263;-58
2022/04/14 01:23:48;;;;;;;;;;;;;;;20.46;42.68;101194.59;5000938;28;4099;-58
2022/04/14 01:26:14;;;;;;;;;;;;;;;20.47;42.68;101196.81;5015183;28;4218;-58
2022/04/14 01:28:40;;;;;;;;;;;;;;;20.44;42.72;101198.09;5012195;28;4450;-58
2022/04/14 01:31:07;;;;;;;;;;;;;;;20.45;42.70;101198.84;5010843;28;4294;-58
2022/04/14 01:33:33;;;;;;;;;;;;;;;20.44;42.61;101198.09;5013534;28;4382;-58
2022/04/14 01:36:00;;;;;;;;;;;;;;;20.42;42.76;101200.13;5016567;28;4181;-58
2022/04/14 01:38:26;;;;;;;;;;;;;;;20.43;42.69;101213.88;5018258;28;4230;-59
2022/04/14 01:40:52;;;;;;;;;;;;;;;20.41;42.64;101216.66;5015979;28;4165;-58
2022/04/14 01:43:19;;;;;;;;;;;;;;;20.42;42.64;101215.25;5015692;28;4169;-58
2022/04/14 01:45:50;;;;;;;;;;;;;;;20.39;42.79;101219.41;5012303;28;4168;-58
2022/04/14 01:48:17;;;;;;;;;;;;;;;20.40;42.68;101215.13;5011492;28;4299;-58
2022/04/14 01:50:44;;;;;;;;;;;;;;;20.38;42.79;101215.03;5014870;28;4060;-58
2022/04/14 01:53:10;;;;;;;;;;;;;;;20.37;42.82;101216.44;5014955;28;4241;-58
2022/04/14 01:55:36;;;;;;;;;;;;;;;20.38;42.75;101223.66;5015327;28;5333;-58
2022/04/14 01:58:03;;;;;;;;;;;;;;;20.38;42.75;101228.66;5012915;28;4531;-59
2022/04/14 02:00:29;;;;;;;;;;;;;;;20.38;42.77;101234.41;5018238;28;4166;-58
2022/04/14 02:02:56;;;;;;;;;;;;;;;20.36;42.73;101220.69;5013416;28;4391;-57
2022/04/14 02:05:23;;;;;;;;;;;;;;;20.36;42.82;101232.19;5015327;28;4151;-58
2022/04/14 02:07:49;;;;;;;;;;;;;;;20.36;42.75;101237.94;5012573;28;4285;-59
2022/04/14 02:10:16;;;;;;;;;;;;;;;20.37;42.82;101253.81;5014491;28;4388;-58
2022/04/14 02:12:45;;;;;;;;;;;;;;;20.36;42.81;101232.19;5013977;28;4150;-58
2022/04/14 02:15:12;;;;;;;;;;;;;;;20.35;42.85;101253.72;5015998;28;4226;-58
2022/04/14 02:17:39;;;;;;;;;;;;;;;20.36;42.82;101251.56;5016412;28;4570;-58
2022/04/14 02:20:05;;;;;;;;;;;;;;;20.34;42.71;101252.22;5015190;28;4200;-58
2022/04/14 02:22:38;;;;;;;;;;;;;;;20.36;42.73;101242.94;5011792;28;4082;-58
2022/04/14 02:25:05;;;;;;;;;;;;;;;20.35;42.80;101229.97;5011528;28;5497;-58
2022/04/14 02:27:31;;;;;;;;;;;;;;;20.36;42.71;101254.44;5012152;28;5461;-58
2022/04/14 02:29:58;;;;;;;;;;;;;;;20.35;42.73;101247.22;5010754;28;4246;-58
2022/04/14 02:32:24;;;;;;;;;;;;;;;20.34;42.79;101257.97;5017230;28;5252;-58
2022/04/14 02:34:50;;;;;;;;;;;;;;;20.34;42.75;101246.47;5015306;28;4077;-57
2022/04/14 02:37:17;;;;;;;;;;;;;;;20.34;42.78;101257.22;5012207;28;4403;-57
2022/04/14 02:39:43;;;;;;;;;;;;;;;20.33;42.76;101256.47;5012506;28;4126;-57
2022/04/14 02:42:09;;;;;;;;;;;;;;;20.38;42.65;101269.69;5003527;28;4248;-57
2022/04/14 02:44:36;;;;;;;;;;;;;;;20.44;42.61;101272.88;5015965;28;4087;-57
2022/04/14 02:47:02;;;;;;;;;;;;;;;20.46;42.49;101270.13;5009300;28;4328;-57
2022/04/14 02:49:28;;;;;;;;;;;;;;;20.48;42.54;101261.59;5013115;28;4079;-57
2022/04/14 02:51:55;;;;;;;;;;;;;;;20.50;42.54;101258.06;5014917;28;4192;-58
2022/04/14 02:54:21;;;;;;;;;;;;;;;20.51;42.45;101266.06;5013370;28;4121;-58
2022/04/14 02:56:48;;;;;;;;;;;;;;;20.52;42.49;101278.31;5012877;28;4298;-57
2022/04/14 02:59:14;;;;;;;;;;;;;;;20.55;42.48;101282.03;5010618;28;4163;-58
2022/04/14 03:01:41;;;;;;;;;;;;;;;20.54;42.63;101281.28;4998936;28;4324;-57
2022/04/14 03:04:08;;;;;;;;;;;;;;;20.54;42.65;101277.69;5006697;28;4372;-58
2022/04/14 03:06:34;;;;;;;;;;;;;;;20.55;42.66;101287.78;5010536;28;5480;-57
2022/04/14 03:09:00;;;;;;;;;;;;;;;20.56;42.75;101283.53;5010366;28;5340;-59
2022/04/14 03:11:27;;;;;;;;;;;;;;;20.56;42.72;101286.41;5013516;28;4198;-57
2022/04/14 03:13:53;;;;;;;;;;;;;;;20.56;42.79;101283.53;5014121;28;4273;-57
2022/04/14 03:16:19;;;;;;;;;;;;;;;20.56;42.82;101286.41;5009664;28;4437;-58
2022/04/14 03:18:46;;;;;;;;;;;;;;;20.57;42.66;101296.56;5014198;28;4216;-58
2022/04/14 03:21:12;;;;;;;;;;;;;;;20.56;42.82;101289.28;5015788;28;4083;-57
2022/04/14 03:23:39;;;;;;;;;;;;;;;20.55;42.77;101290.66;5015504;28;5567;-57
2022/04/14 03:26:08;;;;;;;;;;;;;;;20.56;42.74;101301.56;5008828;28;4331;-59
2022/04/14 03:28:35;;;;;;;;;;;;;;;20.56;42.75;101286.41;5009042;28;4349;-58
2022/04/14 03:31:01;;;;;;;;;;;;;;;20.62;42.89;101286.78;5011569;28;4160;-58
2022/04/14 03:33:28;;;;;;;;;;;;;;;20.60;43.01;101290.28;5012061;28;4239;-57
2022/04/14 03:35:54;;;;;;;;;;;;;;;20.59;42.98;101296.66;5007726;28;5151;-59
2022/04/14 03:38:20;;;;;;;;;;;;;;;20.61;42.93;101291.75;5015894;28;4265;-59
2022/04/14 03:41:02;;;;;;;;;;;;;;;20.61;42.84;101277.38;5012882;28;4021;-57
2022/04/14 03:43:29;;;;;;;;;;;;;;;20.62;43.01;101287.50;5016558;28;5340;-57
2022/04/14 03:45:55;;;;;;;;;;;;;;;20.63;42.87;101280.34;5013199;28;4165;-58
2022/04/14 03:48:21;;;;;;;;;;;;;;;20.62;43.02;101286.78;5013896;28;4341;-58
2022/04/14 03:50:48;;;;;;;;;;;;;;;20.63;43.07;101294.00;5015688;28;4231;-59
2022/04/14 03:53:15;;;;;;;;;;;;;;;20.62;43.05;101286.78;5014017;28;4222;-57
2022/04/14 03:55:42;;;;;;;;;;;;;;;20.61;43.16;101285.25;5016021;28;4215;-57
2022/04/14 03:58:08;;;;;;;;;;;;;;;20.62;43.10;101292.53;5014816;28;4218;-57
2022/04/14 04:00:34;;;;;;;;;;;;;;;20.61;43.09;101302.53;5014622;28;4255;-58
2022/04/14 04:03:01;;;;;;;;;;;;;;;20.61;42.89;101302.53;5015726;28;4193;-58
2022/04/14 04:05:28;;;;;;;;;;;;;;;20.62;43.07;101309.78;5015046;28;4182;-58
2022/04/14 04:07:54;;;;;;;;;;;;;;;20.61;42.99;101316.91;5017579;28;5342;-58
2022/04/14 04:10:20;;;;;;;;;;;;;;;20.63;43.05;101322.78;5017612;28;4532;-57
2022/04/14 04:12:47;;;;;;;;;;;;;;;20.64;43.10;101324.28;5017713;28;5253;-58
2022/04/14 04:15:13;;;;;;;;;;;;;;;20.66;43.07;101321.50;5018341;28;4559;-58
2022/04/14 04:17:40;;;;;;;;;;;;;;;20.67;43.10;101323.00;5016762;28;6335;-58
2022/04/14 04:20:06;;;;;;;;;;;;;;;20.67;43.25;101323.00;5017550;28;4399;-58
2022/04/14 04:22:36;;;;;;;;;;;;;;;20.65;43.29;101326.50;5020798;28;4053;-58
2022/04/14 04:25:03;;;;;;;;;;;;;;;20.65;43.52;101326.50;5017793;28;5240;-57
2022/04/14 04:27:30;;;;;;;;;;;;;;;20.66;43.47;101338.75;5019034;28;4152;-58
2022/04/14 04:29:56;;;;;;;;;;;;;;;20.64;43.46;101325.03;5015384;28;4548;-57
2022/04/14 04:32:22;;;;;;;;;;;;;;;20.64;43.46;101327.16;5015418;28;6398;-58
2022/04/14 04:34:49;;;;;;;;;;;;;;;20.65;43.46;101331.53;5016281;28;4164;-57
2022/04/14 04:37:15;;;;;;;;;;;;;;;20.63;43.45;101335.03;5019693;28;4201;-57
2022/04/14 04:39:42;;;;;;;;;;;;;;;20.64;43.42;101335.81;5017408;28;4267;-57
2022/04/14 04:42:08;;;;;;;;;;;;;;;20.63;43.41;101337.91;5016033;28;4433;-58
2022/04/14 04:44:34;;;;;;;;;;;;;;;20.63;43.43;101322.78;5018794;28;4641;-58
2022/04/14 04:47:01;;;;;;;;;;;;;;;20.61;43.53;101325.56;5017983;28;4199;-61
2022/04/14 04:49:27;;;;;;;;;;;;;;;20.58;43.51;101318.22;5019221;28;4305;-57
2022/04/14 04:51:54;;;;;;;;;;;;;;;20.58;43.60;101326.84;5018253;28;5098;-57
2022/04/14 04:54:20;;;;;;;;;;;;;;;20.58;43.65;101326.84;5015063;28;4193;-58
2022/04/14 04:56:46;;;;;;;;;;;;;;;20.58;43.54;101309.56;5018240;28;4117;-58
2022/04/14 04:59:13;;;;;;;;;;;;;;;20.56;43.59;101313.09;5016680;28;5411;-58
2022/04/14 05:01:39;;;;;;;;;;;;;;;20.58;43.65;101323.97;5017297;28;4114;-58
2022/04/14 05:04:06;;;;;;;;;;;;;;;20.59;43.61;101329.09;5018625;28;4240;-58
2022/04/14 05:06:32;;;;;;;;;;;;;;;20.54;43.59;101321.56;5017390;28;4273;-59
2022/04/14 05:08:58;;;;;;;;;;;;;;;20.57;43.55;101325.31;5018079;28;4141;-58
2022/04/14 05:11:25;;;;;;;;;;;;;;;20.53;43.59;101333.75;5013303;28;5280;-57
2022/04/14 05:13:51;;;;;;;;;;;;;;;20.53;43.68;101322.22;5017621;28;4092;-58
2022/04/14 05:16:17;;;;;;;;;;;;;;;20.52;43.65;101335.84;5015061;28;4187;-58
2022/04/14 05:18:44;;;;;;;;;;;;;;;20.48;43.79;101330.63;5016644;28;4330;-58
2022/04/14 05:21:10;;;;;;;;;;;;;;;20.49;43.75;101343.63;5006519;28;4042;-58
2022/04/14 05:23:37;;;;;;;;;;;;;;;20.49;43.67;101329.25;5004411;28;4149;-58
2022/04/14 05:26:03;;;;;;;;;;;;;;;20.47;43.74;101331.28;5003584;28;4079;-58
2022/04/14 05:28:30;;;;;;;;;;;;;;;20.46;43.67;101327.66;5006738;28;4240;-58
2022/04/14 05:30:56;;;;;;;;;;;;;;;20.44;43.69;101336.16;5015571;28;4602;-58
2022/04/14 05:33:23;;;;;;;;;;;;;;;20.46;43.76;101344.91;5014759;28;4257;-58
2022/04/14 05:35:49;;;;;;;;;;;;;;;20.47;43.72;101352.16;5015381;28;5583;-59
2022/04/14 05:38:16;;;;;;;;;;;;;;;20.56;43.66;101361.22;5015372;28;4349;-59
2022/04/14 05:40:45;;;;;;;;;;;;;;;20.58;43.75;101361.38;5005218;28;4084;-61
2022/04/14 05:43:17;;;;;;;;;;;;;;;20.58;43.82;101350.59;5001700;28;4153;-60
2022/04/14 05:45:44;;;;;;;;;;;;;;;20.70;43.88;101364.88;5008661;28;4394;-61
2022/04/14 05:48:12;;;;;;;;;;;;;;;20.71;43.90;101363.50;5013521;28;4160;-60
2022/04/14 05:50:38;;;;;;;;;;;;;;;20.66;43.82;101373.28;5017913;28;4598;-60
2022/04/14 05:53:05;;;;;;;;;;;;;;;20.63;44.44;101351.56;5011065;28;4124;-60
2022/04/14 05:55:31;;;;;;;;;;;;;;;20.59;44.19;101363.63;5015188;28;4172;-57
2022/04/14 05:57:58;;;;;;;;;;;;;;;20.56;44.03;101350.47;5018448;28;4681;-60
2022/04/14 06:00:24;;;;;;;;;;;;;;;20.56;44.17;101359.13;5016113;28;4174;-60
2022/04/14 06:02:50;;;;;;;;;;;;;;;20.57;44.19;101354.09;5017997;28;5462;-59
2022/04/14 06:05:17;;;;;;;;;;;;;;;20.58;44.25;101355.59;5016196;28;4139;-60
2022/04/14 06:07:43;;;;;;;;;;;;;;;20.56;44.24;101355.47;5012414;28;4318;-60
2022/04/14 06:10:15;;;;;;;;;;;;;;;20.56;44.24;101353.34;5015253;28;5559;-60
2022/04/14 06:12:42;;;;;;;;;;;;;;;20.57;44.21;101359.84;5014350;28;4290;-60
2022/04/14 06:15:09;;;;;;;;;;;;;;;20.57;44.16;101356.97;5017339;28;4298;-60
2022/04/14 06:17:35;;;;;;;;;;;;;;;20.56;44.23;101346.84;5017569;28;4212;-58
2022/04/14 06:20:03;;;;;;;;;;;;;;;20.55;44.22;101351.84;5015486;28;4361;-58
2022/04/14 06:22:29;;;;;;;;;;;;;;;20.54;44.27;101355.34;5010580;28;4171;-58
2022/04/14 06:24:56;;;;;;;;;;;;;;;20.65;44.37;101360.31;5014791;28;4335;-59
2022/04/14 06:27:23;;;;;;;;;;;;;;;20.84;44.45;101364.88;5018053;28;4162;-61
2022/04/14 06:29:49;;;;;;;;;;;;;;;20.86;44.12;101365.72;5015847;28;4032;-61
2022/04/14 06:32:15;;;;;;;;;;;;;;;20.91;43.81;101363.81;5015485;28;4080;-60
2022/04/14 06:34:43;;;;;;;;;;;;;;;20.95;43.59;101369.03;5015970;28;3968;-60
2022/04/14 06:37:09;;;;;;;;;;;;;;;20.97;43.51;101361.25;5004203;28;4029;-61
2022/04/14 06:39:36;;;;;;;;;;;;;;;20.99;43.41;101364.25;5017560;28;5377;-59
2022/04/14 06:42:02;;;;;;;;;;;;;;;21.01;43.42;101360.72;5015887;28;5502;-61
2022/04/14 06:44:29;;;;;;;;;;;;;;;21.06;43.31;101368.19;5016912;28;4299;-62
2022/04/14 06:46:55;;;;;;;;;;;;;;;21.04;43.41;101357.28;5017050;28;5237;-60
2022/04/14 06:49:21;;;;;;;;;;;;;;;21.04;43.43;101365.94;5017156;28;4205;-61
2022/04/14 06:51:48;;;;;;;;;;;;;;;21.07;43.23;101370.44;5015363;28;4257;-62
2022/04/14 06:54:18;;;;;;;;;;;;;;;21.10;43.18;101368.41;5015941;28;5324;-61
2022/04/14 06:56:44;;;;;;;;;;;;;;;21.07;43.46;101369.66;5016985;28;4193;-60
2022/04/14 06:59:10;;;;;;;;;;;;;;;21.07;43.74;101381.19;5018639;28;4374;-60
2022/04/14 07:01:37;;;;;;;;;;;;;;;21.08;43.91;101379.81;5016061;28;4092;-61
2022/04/14 07:04:05;;;;;;;;;;;;;;;21.08;43.83;101376.94;5014218;28;4180;-61
2022/04/14 07:06:32;;;;;;;;;;;;;;;21.14;43.72;101371.47;5018384;28;4154;-62
2022/04/14 07:08:58;;;;;;;;;;;;;;;21.13;43.78;101370.72;5016405;28;4220;-60
2022/04/14 07:11:24;;;;;;;;;;;;;;;21.15;43.90;101363.59;5015525;28;4149;-59
2022/04/14 07:13:51;;;;;;;;;;;;;;;21.19;43.98;101370.31;5014725;28;4237;-62
2022/04/14 07:16:17;;;;;;;;;;;;;;;21.22;43.70;101357.50;5015010;28;4162;-60
2022/04/14 07:18:44;;;;;;;;;;;;;;;21.22;43.65;101365.41;5014647;28;4548;-60
2022/04/14 07:21:10;;;;;;;;;;;;;;;21.22;43.55;101374.78;5015234;28;4209;-60
2022/04/14 07:23:37;;;;;;;;;;;;;;;21.23;43.66;101367.59;5014092;28;4064;-62
2022/04/14 07:26:03;;;;;;;;;;;;;;;21.21;43.67;101361.00;5013892;28;4173;-61
2022/04/14 07:28:29;;;;;;;;;;;;;;;21.25;43.74;101364.09;5012687;28;3948;-64
2022/04/14 07:30:56;;;;;;;;;;;;;;;21.24;43.30;101366.25;5013874;28;4203;-63
2022/04/14 07:33:22;;;;;;;;;;;;;;;21.29;43.44;101367.94;5015773;28;5321;-61
2022/04/14 07:35:50;;;;;;;;;;;;;;;21.30;43.59;101360.78;5015915;28;3967;-62
2022/04/14 07:38:16;;;;;;;;;;;;;;;21.33;43.30;101359.50;5014651;28;5461;-61
2022/04/14 07:40:43;;;;;;;;;;;;;;;21.34;43.41;101355.22;5015369;28;4144;-61
2022/04/14 07:43:09;;;;;;;;;;;;;;;21.37;43.33;101367.59;5013954;28;5271;-61
2022/04/14 07:45:36;;;;;;;;;;;;;;;21.39;43.22;101369.81;5016090;28;4386;-62
2022/04/14 07:48:04;;;;;;;;;;;;;;;21.43;43.05;101364.31;5012146;28;4086;-61
2022/04/14 07:50:30;;;;;;;;;;;;;;;21.43;43.16;101364.31;5014030;28;4177;-62
2022/04/14 07:53:01;;;;;;;;;;;;;;;21.42;43.22;101366.44;5014508;28;4155;-62
2022/04/14 07:55:31;;;;;;;;;;;;;;;21.43;43.30;101364.31;5013494;28;5234;-61
2022/04/14 07:57:58;;;;;;;;;;;;;;;21.41;43.24;101373.59;5015761;28;4009;-62
2022/04/14 08:00:24;;;;;;;;;;;;;;;21.44;43.33;101365.78;5015998;28;4147;-62
2022/04/14 08:02:55;;;;;;;;;;;;;;;21.44;43.35;101378.06;5014470;28;4211;-62
2022/04/14 08:05:26;;;;;;;;;;;;;;;21.43;43.32;101375.84;5013660;28;4596;-61
2022/04/14 08:07:52;;;;;;;;;;;;;;;21.39;43.43;101381.34;5017608;28;4088;-65
2022/04/14 08:10:19;;;;;;;;;;;;;;;21.27;43.45;101390.88;5013885;28;4426;-60
2022/04/14 08:12:45;;;;;;;;;;;;;;;21.23;43.57;101392.78;5008665;28;4436;-60
2022/04/14 08:15:12;;;;;;;;;;;;;;;21.24;43.48;101409.44;5011967;28;4334;-61
2022/04/14 08:17:39;;;;;;;;;;;;;;;21.30;43.44;101404.00;5016038;28;4101;-61
2022/04/14 08:20:06;;;;;;;;;;;;;;;21.30;43.43;101409.75;5014439;28;4216;-62
2022/04/14 08:22:44;;;;;;;;;;;;;;;21.36;43.32;101412.19;5011383;28;4239;-62
2022/04/14 08:25:11;;;;;;;;;;;;;;;21.33;43.44;101408.47;5010676;28;4651;-63
2022/04/14 08:27:37;;;;;;;;;;;;;;;21.30;43.49;101418.41;5011289;28;4242;-64
2022/04/14 08:30:04;;;;;;;;;;;;;;;21.31;43.61;101417.00;5006877;28;4231;-63
2022/04/14 08:32:30;;;;;;;;;;;;;;;21.28;43.60;101418.31;5006156;28;4336;-64
2022/04/14 08:34:57;;;;;;;;;;;;;;;21.33;43.59;101431.50;5016507;28;4350;-62
2022/04/14 08:37:23;;;;;;;;;;;;;;;21.37;43.19;101425.19;5012141;28;4205;-61
2022/04/14 08:39:56;;;;;;;;;;;;;;;21.42;43.39;101424.06;5011300;28;4819;-60
2022/04/14 08:42:25;;;;;;;;;;;;;;;21.46;43.14;101426.41;5012299;28;4108;-62
2022/04/14 08:44:55;;;;;;;;;;;;;;;21.46;43.19;101423.50;5014655;28;4180;-61
2022/04/14 08:47:21;;;;;;;;;;;;;;;21.46;43.14;101426.41;5004410;28;4187;-61
2022/04/14 08:49:48;;;;;;;;;;;;;;;21.40;43.15;101435.50;4994547;28;5164;-61
2022/04/14 08:52:15;;;;;;;;;;;;;;;21.43;43.06;101439.94;5013284;28;4238;-60
2022/04/14 08:54:45;;;;;;;;;;;;;;;21.43;43.32;101433.44;5010760;28;5761;-62
2022/04/14 08:57:13;;;;;;;;;;;;;;;21.31;43.38;101437.16;4998559;28;4262;-60
2022/04/14 08:59:43;;;;;;;;;;;;;;;21.36;43.56;101440.28;5007632;28;4235;-66
2022/04/14 09:02:14;;;;;;;;;;;;;;;21.27;43.61;101445.59;5006171;28;4251;-63
2022/04/14 09:04:41;;;;;;;;;;;;;;;21.20;43.91;101443.78;5010395;28;4243;-64
2022/04/14 09:07:08;;;;;;;;;;;;;;;21.17;44.01;101445.09;5010238;28;4558;-63
2022/04/14 09:09:34;;;;;;;;;;;;;;;21.19;44.03;101453.84;4998532;28;4430;-63
2022/04/14 09:12:01;;;;;;;;;;;;;;;21.24;43.75;101457.66;5014678;28;4265;-67
2022/04/14 09:14:28;;;;;;;;;;;;;;;21.31;43.77;101445.06;5015071;28;4466;-61
2022/04/14 09:16:54;;;;;;;;;;;;;;;21.32;43.64;101440.78;5013555;28;5380;-61
2022/04/14 09:19:21;;;;;;;;;;;;;;;21.37;43.67;101442.47;5017593;28;4317;-62
2022/04/14 09:22:00;;;;;;;;;;;;;;;21.38;43.69;101449.00;5018985;28;4128;-63
2022/04/14 09:24:38;;;;;;;;;;;;;;;21.38;43.80;101451.91;5014280;28;4145;-61
2022/04/14 09:27:04;;;;;;;;;;;;;;;21.34;44.10;101444.53;5018661;28;4326;-62
2022/04/14 09:29:31;;;;;;;;;;;;;;;21.34;44.29;101444.53;5013931;28;4256;-60
2022/04/14 09:31:57;;;;;;;;;;;;;;;21.34;44.81;101441.63;4997026;28;4390;-62
2022/04/14 09:34:42;;;;;;;;;;;;;;;21.39;45.24;101438.97;5015621;28;4181;-60
2022/04/14 09:37:08;;;;;;;;;;;;;;;21.34;45.65;101447.41;5017257;28;4378;-62
2022/04/14 09:39:51;;;;;;;;;;;;;;;21.31;45.64;101442.19;5013676;28;4131;-60
2022/04/14 09:42:17;;;;;;;;;;;;;;;21.40;45.49;101455.66;5013203;28;4246;-66
2022/04/14 09:44:43;;;;;;;;;;;;;;;21.44;46.52;101446.47;5014831;28;4251;-62
2022/04/14 09:47:10;;;;;;;;;;;;;;;21.46;46.39;101443.69;4991289;28;5629;-59
2022/04/14 09:49:39;;;;;;;;;;;;;;;21.47;46.50;101448.06;5013849;28;4181;-58
2022/04/14 09:52:07;;;;;;;;;;;;;;;21.44;46.98;101446.47;5009541;28;4805;-58
2022/04/14 09:54:33;;;;;;;;;;;;;;;21.42;46.98;101444.25;5015580;28;5675;-58
2022/04/14 09:56:59;;;;;;;;;;;;;;;21.43;46.71;101451.47;5013534;28;6005;-58
2022/04/14 09:59:29;;;;;;;;;;;;;;;21.44;46.80;101446.47;5013319;28;5115;-59
2022/04/14 10:02:07;;;;;;;;;;;;;;;21.36;47.04;101446.75;5012151;28;5345;-59
2022/04/14 10:04:34;;;;;;;;;;;;;;;21.41;46.88;101451.38;5012509;28;4379;-59
2022/04/14 10:07:04;;;;;;;;;;;;;;;21.43;46.61;101445.72;5013902;28;5270;-59
2022/04/14 10:09:31;;;;;;;;;;;;;;;21.41;46.89;101444.88;5016536;28;4184;-60
2022/04/14 10:11:58;;;;;;;;;;;;;;;21.40;46.78;101449.13;5014920;28;4483;-58
2022/04/14 10:14:25;;;;;;;;;;;;;;;21.45;46.65;101450.84;5016360;28;5670;-65
2022/04/14 10:16:52;;;;;;;;;;;;;;;21.44;46.80;101457.97;5018858;28;4200;-66
2022/04/14 10:19:18;;;;;;;;;;;;;;;21.46;46.57;101455.22;5006107;28;4744;-61
2022/04/14 10:21:45;;;;;;;;;;;;;;;21.46;46.52;101449.44;5013415;28;5970;-61
2022/04/14 10:24:11;;;;;;;;;;;;;;;21.48;46.22;101444.53;5013915;28;4180;-62
2022/04/14 10:26:40;;;;;;;;;;;;;;;21.48;46.27;101452.44;5015088;28;4578;-61
2022/04/14 10:29:07;;;;;;;;;;;;;;;21.48;46.38;101453.16;4997148;28;4381;-61
2022/04/14 10:31:35;;;;;;;;;;;;;;;21.50;46.13;101443.91;5009398;28;4288;-61
2022/04/14 10:34:06;;;;;;;;;;;;;;;21.48;46.14;101440.91;5012587;28;4518;-62
2022/04/14 10:36:37;;;;;;;;;;;;;;;21.51;45.99;101445.41;5013819;28;4047;-59
2022/04/14 10:39:03;;;;;;;;;;;;;;;21.50;46.04;101441.00;5009855;28;4619;-60
2022/04/14 10:41:30;;;;;;;;;;;;;;;21.50;46.04;101432.38;4999802;28;4627;-59
2022/04/14 10:44:00;;;;;;;;;;;;;;;21.49;45.99;101451.06;5013648;28;4293;-59
2022/04/14 10:46:29;;;;;;;;;;;;;;;21.49;45.70;101448.19;5014573;28;4315;-59
2022/04/14 10:49:09;;;;;;;;;;;;;;;21.49;45.85;101457.56;5014025;28;4324;-60
2022/04/14 10:51:36;;;;;;;;;;;;;;;21.47;46.09;101459.59;5015447;28;4620;-59
2022/04/14 10:54:06;;;;;;;;;;;;;;;21.47;45.96;101456.72;5008751;28;4671;-60
2022/04/14 10:56:39;;;;;;;;;;;;;;;21.48;45.74;101463.97;5007671;28;4610;-60
2022/04/14 10:59:12;;;;;;;;;;;;;;;21.50;45.67;101472.72;5005155;28;4444;-60
2022/04/14 11:01:45;;;;;;;;;;;;;;;21.49;45.89;101465.47;5014397;28;5459;-63
2022/04/14 11:04:20;;;;;;;;;;;;;;;21.47;45.76;101468.97;5011649;28;4323;-63
2022/04/14 11:06:47;;;;;;;;;;;;;;;21.46;45.88;101475.38;5013156;28;4533;-59
2022/04/14 11:09:32;;;;;;;;;;;;;;;21.42;45.57;101472.31;5015989;28;4427;-66
2022/04/14 11:11:59;;;;;;;;;;;;;;;21.16;46.66;101478.13;5010017;28;4152;-65
2022/04/14 11:14:25;;;;;;;;;;;;;;;20.97;47.42;101475.69;5009774;28;5849;-59
2022/04/14 11:16:52;;;;;;;;;;;;;;;21.04;47.26;101463.84;5015616;28;4111;-60
2022/04/14 11:19:19;;;;;;;;;;;;;;;21.04;47.11;101474.63;5012310;28;4380;-59
2022/04/14 11:22:01;;;;;;;;;;;;;;;21.12;47.05;101477.94;5014649;28;4934;-58
2022/04/14 11:24:36;;;;;;;;;;;;;;;21.16;46.90;101480.28;5010090;28;4077;-59
2022/04/14 11:27:07;;;;;;;;;;;;;;;21.14;46.75;101483.78;5009070;28;5537;-58
2022/04/14 11:29:34;;;;;;;;;;;;;;;21.19;46.28;101479.75;5013279;28;4413;-59
2022/04/14 11:32:00;;;;;;;;;;;;;;;21.17;46.34;101482.53;5014334;28;4227;-58
2022/04/14 11:34:33;;;;;;;;;;;;;;;21.18;46.23;101489.75;5011210;28;4046;-59
2022/04/14 11:37:01;;;;;;;;;;;;;;;21.19;46.42;101491.28;5014016;28;5635;-59
2022/04/14 11:39:27;;;;;;;;;;;;;;;21.22;46.07;101489.97;5014650;28;4436;-59
2022/04/14 11:42:10;;;;;;;;;;;;;;;21.20;45.92;101489.88;5010525;28;5092;-68
2022/04/14 11:44:37;;;;;;;;;;;;;;;20.99;46.67;101481.56;5011623;28;4201;-62
2022/04/14 11:47:04;;;;;;;;;;;;;;;20.95;46.92;101484.94;5014449;28;4594;-61
2022/04/14 11:49:31;;;;;;;;;;;;;;;21.02;46.67;101497.53;5012838;28;4194;-61
2022/04/14 11:51:58;;;;;;;;;;;;;;;21.04;46.59;101503.41;5012963;28;5349;-61
2022/04/14 11:54:31;;;;;;;;;;;;;;;21.03;46.51;101496.91;5014288;28;4402;-60
2022/04/14 11:57:09;;;;;;;;;;;;;;;21.21;46.33;101494.25;5014190;28;4480;-60
2022/04/14 11:59:36;;;;;;;;;;;;;;;21.25;46.06;101494.44;5015388;28;4568;-61
2022/04/14 12:02:04;;;;;;;;;;;;;;;21.27;45.95;101496.69;5014879;28;4509;-60
2022/04/14 12:04:35;;;;;;;;;;;;;;;21.28;45.94;101504.72;5014021;28;4044;-59
2022/04/14 12:07:01;;;;;;;;;;;;;;;21.31;46.11;101508.44;5013252;28;4508;-63
2022/04/14 12:09:27;;;;;;;;;;;;;;;21.32;46.02;101498.41;5009022;28;4538;-58
2022/04/14 12:11:54;;;;;;;;;;;;;;;21.33;45.99;101497.78;5015924;28;5519;-57
2022/04/14 12:14:20;;;;;;;;;;;;;;;21.37;46.01;101502.25;5012580;28;6444;-58
2022/04/14 12:16:47;;;;;;;;;;;;;;;21.34;45.89;101505.00;5012460;28;4386;-58
2022/04/14 12:19:14;;;;;;;;;;;;;;;21.34;45.81;101507.16;5013842;28;5305;-58
2022/04/14 12:21:40;;;;;;;;;;;;;;;21.37;45.85;101505.13;5013971;28;4535;-57
2022/04/14 12:24:06;;;;;;;;;;;;;;;21.34;45.89;101510.78;5013519;28;4241;-59
2022/04/14 12:26:37;;;;;;;;;;;;;;;21.42;45.84;101519.16;5015078;28;5685;-60
2022/04/14 12:29:06;;;;;;;;;;;;;;;21.36;45.68;101515.91;5016739;28;5065;-59
2022/04/14 12:31:33;;;;;;;;;;;;;;;21.36;45.90;101515.16;5017348;28;4200;-59
2022/04/14 12:34:00;;;;;;;;;;;;;;;21.38;45.86;101512.41;5009347;28;4521;-59
2022/04/14 12:36:46;;;;;;;;;;;;;;;21.39;45.91;101513.88;5016951;28;5654;-59
2022/04/14 12:39:17;;;;;;;;;;;;;;;21.40;45.67;101513.28;5013579;28;5566;-59
2022/04/14 12:41:43;;;;;;;;;;;;;;;21.38;45.66;101500.88;5011023;28;4144;-59
2022/04/14 12:44:14;;;;;;;;;;;;;;;21.37;45.84;101482.81;5014679;28;4454;-59
2022/04/14 12:46:41;;;;;;;;;;;;;;;21.39;45.70;101502.34;5016662;28;4059;-58
2022/04/14 12:49:07;;;;;;;;;;;;;;;21.43;45.81;101519.91;5013160;28;4461;-60